Garcia, Colorado
Current Conditions -  °F | °C
As of 7:52 AM on Saturday 25 Oct 2014 (Local Time) from KALS Reporting Station
Clear Clear  
Wind Chill: 26°   Ceiling: Unl
Heat Index: 26°   Visibility: 10mi
Dew Point: 20°   Wind: 0mph
Humidity: 78%   Direction: NA
Pressure: 30.43"   Gusts: NA
Location:  37°N, 105.54°W
Report Text: KALS 251352Z AUTO 00000KT 10SM CLR M03/M07 A3043 RMK AO2 SLP284 T10331067
Loading
Personal Weather Stations






























Interactive Weather Map
Tropical Storm Tracking
New forecast layout! Learn more

10-Day Weather Forecast

Advertisements
Track Severe Weather on mobile